Time,TemperatureF,DewpointF,PressureIn,WindDirection,WindDirectionDegrees,WindSpeedMPH,WindSpeedGustMPH,Humidity,HourlyPrecipIn,Conditions,Clouds,dailyrainin,SoftwareType,DateUTC
2013-09-22 00:02:00,-999.0,-99.9,29.72,NE,54,2.0,5.0,-999,-99.99,,,-99.99,,2013-09-22 04:02:00,
2013-09-22 00:14:00,67.0,64.0,29.72,NE,54,2.0,5.0,89,0.00,,,0.00,,2013-09-22 04:14:00,
2013-09-22 00:23:00,67.0,64.0,29.72,NNW,336,2.0,4.0,89,0.00,,,0.00,,2013-09-22 04:23:00,
2013-09-22 00:44:00,67.0,64.0,29.72,NNW,338,2.0,4.0,89,0.00,,,0.00,,2013-09-22 04:44:00,
2013-09-22 00:54:00,67.0,64.0,29.71,NNW,347,1.0,4.0,90,0.00,,,0.00,,2013-09-22 04:54:00,
2013-09-22 01:13:00,67.0,64.0,29.70,NW,325,2.0,4.0,90,0.00,,,0.00,,2013-09-22 05:13:00,
2013-09-22 01:23:00,67.0,64.0,29.70,WNW,297,2.0,5.0,91,0.00,,,0.00,,2013-09-22 05:23:00,
2013-09-22 01:53:00,67.0,64.0,29.68,NW,323,1.0,5.0,90,0.00,,,0.00,,2013-09-22 05:53:00,
2013-09-22 02:22:00,67.0,64.0,29.66,North,3,2.0,5.0,90,0.00,,,0.00,,2013-09-22 06:22:00,
2013-09-22 02:52:00,67.0,64.0,29.65,NNW,335,3.0,7.0,90,0.00,,,0.00,,2013-09-22 06:52:00,
2013-09-22 03:11:00,67.0,64.0,29.64,North,359,2.0,6.0,90,0.00,,,0.00,,2013-09-22 07:11:00,
2013-09-22 03:22:00,67.0,64.0,29.64,North,359,2.0,5.0,91,0.00,,,0.00,,2013-09-22 07:22:00,
2013-09-22 03:42:00,67.0,65.0,29.63,NNW,330,1.0,7.0,92,0.00,,,0.00,,2013-09-22 07:42:00,
2013-09-22 03:52:00,67.0,65.0,29.62,NNW,328,3.0,7.0,92,0.00,,,0.00,,2013-09-22 07:52:00,
2013-09-22 04:12:00,68.0,65.0,29.62,North,350,3.0,9.0,91,0.00,,,0.00,,2013-09-22 08:12:00,
2013-09-22 04:22:00,69.0,66.0,29.61,WNW,284,3.0,9.0,90,0.00,,,0.00,,2013-09-22 08:22:00,
2013-09-22 04:52:00,69.0,66.0,29.60,NNW,338,2.0,7.0,89,0.00,,,0.00,,2013-09-22 08:52:00,
2013-09-22 05:11:00,69.0,66.0,29.60,NW,325,3.0,11.0,89,0.00,,,0.00,,2013-09-22 09:11:00,
2013-09-22 05:22:00,69.0,66.0,29.59,NNW,331,2.0,11.0,89,0.00,,,0.00,,2013-09-22 09:22:00,
2013-09-22 05:43:00,69.0,65.0,29.60,NNW,338,2.0,7.0,88,0.00,,,0.00,,2013-09-22 09:43:00,
2013-09-22 05:54:00,69.0,65.0,29.59,North,350,3.0,8.0,88,0.00,,,0.00,,2013-09-22 09:54:00,
2013-09-22 06:12:00,70.0,66.0,29.59,North,359,3.0,9.0,87,0.00,,,0.00,,2013-09-22 10:12:00,
2013-09-22 06:23:00,70.0,66.0,29.59,East,91,2.0,8.0,86,0.00,,,0.00,,2013-09-22 10:23:00,
2013-09-22 06:44:00,69.0,66.0,29.60,NNW,331,2.0,10.0,89,0.02,,,0.02,,2013-09-22 10:44:00,
2013-09-22 06:53:00,67.0,65.0,29.61,NE,54,2.0,11.0,93,0.13,,,0.13,,2013-09-22 10:53:00,
2013-09-22 07:12:00,65.0,62.0,29.62,NE,42,2.0,9.0,90,0.18,,,0.18,,2013-09-22 11:12:00,
2013-09-22 07:22:00,63.0,61.0,29.62,NNW,341,1.0,4.0,92,0.25,,,0.25,,2013-09-22 11:22:00,
2013-09-22 07:42:00,63.0,61.0,29.63,NW,316,0.0,3.0,94,0.29,,,0.33,,2013-09-22 11:42:00,
2013-09-22 07:52:00,62.0,60.0,29.64,NW,311,1.0,3.0,94,0.26,,,0.36,,2013-09-22 11:52:00,
2013-09-22 08:12:00,62.0,60.0,29.63,WSW,242,1.0,4.0,94,0.23,,,0.41,,2013-09-22 12:12:00,
2013-09-22 08:22:00,62.0,60.0,29.64,NNW,328,1.0,4.0,94,0.20,,,0.45,,2013-09-22 12:22:00,
2013-09-22 08:42:00,62.0,61.0,29.65,NNW,330,2.0,4.0,95,0.18,,,0.49,,2013-09-22 12:42:00,
2013-09-22 08:52:00,62.0,61.0,29.65,NW,321,1.0,3.0,95,0.15,,,0.53,,2013-09-22 12:52:00,
2013-09-22 09:12:00,62.0,61.0,29.65,NW,304,3.0,4.0,95,0.14,,,0.55,,2013-09-22 13:12:00,
2013-09-22 09:22:00,62.0,61.0,29.65,NW,315,1.0,3.0,95,0.12,,,0.57,,2013-09-22 13:22:00,
2013-09-22 09:42:00,62.0,61.0,29.65,NW,313,0.0,3.0,96,0.10,,,0.59,,2013-09-22 13:42:00,
2013-09-22 09:52:00,63.0,62.0,29.65,NW,315,1.0,2.0,96,0.08,,,0.60,,2013-09-22 13:52:00,
2013-09-22 10:11:00,63.0,62.0,29.65,WNW,283,1.0,5.0,95,0.05,,,0.60,,2013-09-22 14:11:00,
2013-09-22 10:22:00,63.0,62.0,29.65,NE,44,1.0,3.0,95,0.03,,,0.60,,2013-09-22 14:22:00,
2013-09-22 10:42:00,63.0,62.0,29.65,NNE,15,1.0,6.0,95,0.01,,,0.60,,2013-09-22 14:42:00,
2013-09-22 10:52:00,63.0,61.0,29.65,NNE,18,1.0,4.0,93,0.00,,,0.60,,2013-09-22 14:52:00,
2013-09-22 11:12:00,62.0,59.0,29.65,NNW,334,0.0,7.0,90,0.00,,,0.60,,2013-09-22 15:12:00,
2013-09-22 11:23:00,62.0,60.0,29.65,North,5,0.0,3.0,92,0.00,,,0.60,,2013-09-22 15:23:00,
2013-09-22 11:44:00,63.0,60.0,29.65,NW,319,3.0,6.0,89,0.00,,,0.60,,2013-09-22 15:44:00,
2013-09-22 11:54:00,64.0,60.0,29.65,NW,325,3.0,7.0,88,0.00,,,0.60,,2013-09-22 15:54:00,
2013-09-22 12:24:00,64.0,60.0,29.65,NNW,334,2.0,5.0,88,0.00,,,0.60,,2013-09-22 16:24:00,
2013-09-22 12:54:00,67.0,62.0,29.65,NE,38,1.0,4.0,83,0.00,,,0.60,,2013-09-22 16:54:00,
2013-09-22 13:12:00,69.0,63.0,29.65,SSE,157,1.0,5.0,80,0.00,,,0.60,,2013-09-22 17:12:00,
2013-09-22 13:23:00,72.0,62.0,29.64,NNE,23,3.0,5.0,71,0.00,,,0.60,,2013-09-22 17:23:00,
2013-09-22 13:43:00,71.0,60.0,29.63,NNE,25,2.0,4.0,68,0.00,,,0.60,,2013-09-22 17:43:00,
2013-09-22 13:53:00,73.0,59.0,29.63,NW,315,2.0,10.0,61,0.00,,,0.60,,2013-09-22 17:53:00,
2013-09-22 14:13:00,74.0,58.0,29.63,NE,39,2.0,9.0,58,0.00,,,0.60,,2013-09-22 18:13:00,
2013-09-22 14:22:00,74.0,58.0,29.63,NE,43,1.0,4.0,58,0.00,,,0.60,,2013-09-22 18:22:00,
2013-09-22 14:42:00,71.0,55.0,29.63,ENE,70,2.0,7.0,58,0.00,,,0.60,,2013-09-22 18:42:00,
2013-09-22 14:52:00,71.0,56.0,29.64,NNE,14,1.0,5.0,59,0.00,,,0.60,,2013-09-22 18:52:00,
2013-09-22 15:11:00,71.0,54.0,29.64,NE,42,1.0,6.0,56,0.00,,,0.60,,2013-09-22 19:11:00,
2013-09-22 15:22:00,70.0,54.0,29.64,NE,34,2.0,10.0,56,0.00,,,0.60,,2013-09-22 19:22:00,
2013-09-22 15:53:00,70.0,54.0,29.64,East,99,1.0,4.0,57,0.00,,,0.60,,2013-09-22 19:53:00,
2013-09-22 16:12:00,70.0,52.0,29.64,NW,304,3.0,5.0,52,0.00,,,0.60,,2013-09-22 20:12:00,
2013-09-22 16:22:00,69.0,52.0,29.64,NNE,29,1.0,7.0,54,0.00,,,0.60,,2013-09-22 20:22:00,
2013-09-22 16:42:00,69.0,53.0,29.65,NNE,32,1.0,5.0,57,0.00,,,0.60,,2013-09-22 20:42:00,
2013-09-22 16:52:00,69.0,52.0,29.65,ESE,115,2.0,7.0,54,0.00,,,0.60,,2013-09-22 20:52:00,
2013-09-22 17:23:00,68.0,51.0,29.65,North,359,2.0,3.0,54,0.00,,,0.60,,2013-09-22 21:23:00,
2013-09-22 17:45:00,68.0,51.0,29.66,ENE,65,1.0,3.0,55,0.00,,,0.60,,2013-09-22 21:45:00,
2013-09-22 17:54:00,68.0,52.0,29.67,ESE,122,1.0,3.0,57,0.00,,,0.60,,2013-09-22 21:54:00,
2013-09-22 18:14:00,66.0,51.0,29.67,ESE,105,0.0,0.0,59,0.00,,,0.60,,2013-09-22 22:14:00,
2013-09-22 18:24:00,65.0,52.0,29.67,North,1,0.0,1.0,63,0.00,,,0.60,,2013-09-22 22:24:00,
2013-09-22 18:54:00,64.0,52.0,29.68,NE,55,1.0,3.0,66,0.00,,,0.60,,2013-09-22 22:54:00,
2013-09-22 19:12:00,64.0,52.0,29.69,NE,34,1.0,3.0,64,0.00,,,0.60,,2013-09-22 23:12:00,
2013-09-22 19:22:00,63.0,51.0,29.70,East,88,1.0,4.0,65,0.00,,,0.60,,2013-09-22 23:22:00,
2013-09-22 19:43:00,63.0,51.0,29.71,NE,51,1.0,4.0,65,0.00,,,0.60,,2013-09-22 23:43:00,
2013-09-22 19:52:00,62.0,51.0,29.72,East,98,1.0,4.0,68,0.00,,,0.60,,2013-09-22 23:52:00,
2013-09-22 20:12:00,61.0,51.0,29.72,East,101,1.0,3.0,69,0.00,,,0.60,,2013-09-23 00:12:00,
2013-09-22 20:23:00,60.0,50.0,29.73,NE,51,1.0,3.0,70,0.00,,,0.60,,2013-09-23 00:23:00,
2013-09-22 20:42:00,60.0,51.0,29.74,East,87,1.0,3.0,73,0.00,,,0.60,,2013-09-23 00:42:00,
2013-09-22 20:53:00,59.0,50.0,29.75,East,98,1.0,3.0,73,0.00,,,0.60,,2013-09-23 00:53:00,
2013-09-22 21:12:00,59.0,50.0,29.76,East,82,1.0,4.0,73,0.00,,,0.60,,2013-09-23 01:12:00,
2013-09-22 21:22:00,58.0,50.0,29.76,ESE,114,0.0,2.0,74,0.00,,,0.60,,2013-09-23 01:22:00,
2013-09-22 21:43:00,58.0,50.0,29.77,NE,41,0.0,2.0,75,0.00,,,0.60,,2013-09-23 01:43:00,
2013-09-22 21:52:00,57.0,48.0,29.77,ENE,68,1.0,2.0,73,0.00,,,0.60,,2013-09-23 01:52:00,
2013-09-22 22:11:00,57.0,49.0,29.78,NNE,22,1.0,2.0,74,0.00,,,0.60,,2013-09-23 02:11:00,
2013-09-22 22:22:00,56.0,48.0,29.78,ENE,65,0.0,2.0,74,0.00,,,0.60,,2013-09-23 02:22:00,
2013-09-22 22:42:00,56.0,48.0,29.78,NE,54,1.0,4.0,74,0.00,,,0.60,,2013-09-23 02:42:00,
2013-09-22 22:52:00,56.0,47.0,29.79,ENE,65,1.0,3.0,73,0.00,,,0.60,,2013-09-23 02:52:00,
2013-09-22 23:12:00,55.0,47.0,29.79,ENE,68,1.0,2.0,73,0.00,,,0.60,,2013-09-23 03:12:00,
2013-09-22 23:23:00,55.0,47.0,29.79,SE,140,1.0,3.0,73,0.00,,,0.60,,2013-09-23 03:23:00,
2013-09-22 23:54:00,54.0,45.0,29.80,ESE,117,1.0,4.0,71,0.00,,,0.60,,2013-09-23 03:54:00,